Time;durP1;ratioP1;P1;durP2;ratioP2;P2;SDS_P1;SDS_P2;PMS_P1;PMS_P2;Temp;Humidity;BMP_temperature;BMP_pressure;BME280_temperature;BME280_humidity;BME280_pressure;Samples;Min_cycle;Max_cycle;Signal;HPM_P1;HPM_P2
2023/09/28 00:03:01;;;;;;;7.82;7.13;;;12.60;99.90;;;13.43;100.00;98083.38;10441097;28;20283;-80
2023/09/28 00:08:07;;;;;;;8.07;7.28;;;12.50;99.90;;;13.36;100.00;98076.16;10442590;28;20607;-81
2023/09/28 00:13:11;;;;;;;8.88;8.07;;;12.50;99.90;;;13.44;100.00;98073.97;10440786;28;20251;-80
2023/09/28 00:18:14;;;;;;;7.88;7.28;;;12.70;99.90;;;13.51;100.00;98076.94;10442429;28;20236;-79
2023/09/28 00:23:18;;;;;;;8.45;7.75;;;12.70;99.90;;;13.58;100.00;98072.97;10441420;28;20635;-79
2023/09/28 00:28:22;;;;;;;8.70;8.00;;;12.80;99.90;;;13.47;100.00;98069.84;10440962;28;20229;-79
2023/09/28 00:33:25;;;;;;;6.90;6.40;;;12.60;99.90;;;13.44;100.00;98069.72;10439905;28;20246;-79
2023/09/28 00:38:30;;;;;;;8.18;7.57;;;12.60;99.90;;;13.34;99.68;98075.22;10441502;28;20225;-82
2023/09/28 00:43:34;;;;;;;8.13;7.43;;;12.40;99.90;;;13.31;100.00;98072.50;10436997;28;20237;-81
2023/09/28 00:48:50;;;;;;;7.85;7.25;;;12.40;99.90;;;13.26;100.00;98068.81;10441096;28;20213;-78
2023/09/28 00:53:56;;;;;;;7.57;6.95;;;12.40;99.90;;;13.26;100.00;98073.94;10441296;28;20319;-82
2023/09/28 00:59:01;;;;;;;7.65;7.05;;;12.40;99.90;;;13.20;99.37;98078.75;10440763;28;20240;-79
2023/09/28 01:04:10;;;;;;;8.10;7.50;;;12.30;99.90;;;13.15;99.97;98082.75;10436076;28;20225;-80
2023/09/28 01:09:15;;;;;;;7.80;7.10;;;12.20;99.90;;;13.05;100.00;98082.31;10444327;28;20237;-79
2023/09/28 01:14:21;;;;;;;9.35;8.60;;;12.20;99.90;;;13.04;100.00;98093.34;10435774;28;20363;-80
2023/09/28 01:19:24;;;;;;;10.48;9.57;;;12.20;99.90;;;13.12;100.00;98095.44;10440723;28;20253;-78
2023/09/28 01:24:29;;;;;;;8.27;7.65;;;12.40;99.90;;;13.10;100.00;98095.34;10435542;28;20235;-79
2023/09/28 01:29:34;;;;;;;8.65;7.95;;;12.30;99.90;;;13.06;100.00;98093.44;10440120;28;20324;-79
2023/09/28 01:34:37;;;;;;;8.55;7.85;;;12.20;99.90;;;13.00;100.00;98100.84;10446159;28;20392;-78
2023/09/28 01:39:42;;;;;;;8.50;7.80;;;12.10;99.90;;;12.96;100.00;98094.66;10442608;28;20813;-80
2023/09/28 01:44:45;;;;;;;8.77;8.07;;;12.10;99.90;;;12.88;100.00;98098.53;10447580;28;20308;-80
2023/09/28 01:49:49;;;;;;;8.23;7.63;;;12.00;99.90;;;12.84;100.00;98094.88;10449678;28;20280;-80
2023/09/28 01:54:54;;;;;;;8.30;7.65;;;12.00;99.90;;;12.85;100.00;98095.78;10446747;28;20228;-81
2023/09/28 01:59:57;;;;;;;7.60;7.00;;;11.90;99.90;;;12.82;100.00;98104.22;10454809;28;20257;-81
2023/09/28 02:05:01;;;;;;;8.35;7.65;;;12.00;99.90;;;12.75;100.00;98096.09;10449402;28;20229;-82
2023/09/28 02:10:07;;;;;;;8.23;7.60;;;11.90;99.90;;;12.69;100.00;98108.63;10443968;28;20226;-81
2023/09/28 02:15:14;;;;;;;8.68;7.97;;;11.90;99.90;;;12.62;100.00;98105.72;10449299;28;20241;-79
2023/09/28 02:20:22;;;;;;;9.55;8.80;;;11.80;99.90;;;12.43;100.00;98099.53;10452817;28;20309;-79
2023/09/28 02:25:29;;;;;;;8.43;7.78;;;11.70;99.90;;;12.44;100.00;98096.16;10455399;28;20334;-80
2023/09/28 02:30:32;;;;;;;9.45;8.65;;;11.60;99.90;;;12.42;100.00;98106.34;10448076;28;20290;-80
2023/09/28 02:35:36;;;;;;;9.90;8.95;;;11.70;99.90;;;12.34;100.00;98102.50;10465227;28;20273;-82
2023/09/28 02:40:40;;;;;;;8.73;8.13;;;11.60;99.90;;;12.46;100.00;98100.56;10464110;28;20230;-81
2023/09/28 02:45:43;;;;;;;8.90;8.10;;;11.70;99.90;;;12.54;100.00;98109.56;10467914;28;20264;-81
2023/09/28 02:50:48;;;;;;;8.50;7.70;;;11.80;99.90;;;12.58;100.00;98111.47;10455278;28;20214;-78
2023/09/28 02:55:53;;;;;;;7.78;7.18;;;11.70;99.90;;;12.55;100.00;98106.19;10443313;28;20226;-79
2023/09/28 03:00:57;;;;;;;8.35;7.72;;;11.70;99.90;;;12.46;100.00;98110.84;10442555;28;20307;-79
2023/09/28 03:06:01;;;;;;;7.93;7.32;;;11.60;99.90;;;12.33;100.00;98098.16;10437580;28;20656;-79
2023/09/28 03:11:06;;;;;;;8.90;8.00;;;11.50;99.90;;;12.16;100.00;98095.56;10441645;28;20606;-79
2023/09/28 03:16:11;;;;;;;9.00;8.32;;;11.40;99.90;;;12.15;100.00;98104.03;10440336;28;20224;-79
2023/09/28 03:21:14;;;;;;;8.73;8.10;;;11.40;99.90;;;12.21;100.00;98100.06;10437500;28;20673;-80
2023/09/28 03:26:19;;;;;;;10.18;9.27;;;11.40;99.90;;;12.26;100.00;98106.31;10438885;28;20324;-79
2023/09/28 03:31:26;;;;;;;10.38;9.57;;;11.60;99.90;;;12.28;100.00;98107.28;10437626;28;20221;-80
2023/09/28 03:36:32;;;;;;;9.55;8.75;;;11.60;99.90;;;12.35;100.00;98114.50;10441368;28;20217;-81
2023/09/28 03:41:37;;;;;;;9.60;8.93;;;11.60;99.90;;;12.38;100.00;98112.97;10433450;28;20225;-79
2023/09/28 03:46:40;;;;;;;10.00;9.20;;;11.60;99.90;;;12.46;100.00;98109.97;10436669;28;21829;-81
2023/09/28 03:51:43;;;;;;;9.50;8.70;;;11.60;99.90;;;12.45;100.00;98109.09;10443817;28;20233;-79
2023/09/28 03:56:48;;;;;;;9.55;8.77;;;11.60;99.90;;;12.32;100.00;98122.91;10437661;28;20214;-79
2023/09/28 04:01:54;;;;;;;9.95;9.10;;;11.50;99.90;;;12.29;100.00;98127.88;10438558;28;20229;-79
2023/09/28 04:06:57;;;;;;;9.60;8.85;;;11.50;99.90;;;12.29;100.00;98124.44;10441398;28;20271;-81
2023/09/28 04:12:03;;;;;;;9.82;9.02;;;11.50;99.90;;;12.41;100.00;98135.34;10435665;28;22277;-79
2023/09/28 04:17:06;;;;;;;9.65;8.85;;;11.60;99.90;;;12.39;100.00;98145.53;10436596;28;20209;-80
2023/09/28 04:22:09;;;;;;;8.85;8.15;;;11.60;99.90;;;12.38;100.00;98153.13;10439492;28;20270;-81
2023/09/28 04:27:14;;;;;;;8.80;7.97;;;11.50;99.90;;;12.42;100.00;98157.63;10430438;28;20662;-81
2023/09/28 04:32:17;;;;;;;9.18;8.43;;;11.60;99.90;;;12.41;100.00;98153.28;10439469;28;20221;-81
2023/09/28 04:37:21;;;;;;;8.18;7.57;;;11.60;99.90;;;12.47;100.00;98161.31;10432252;28;20304;-78
2023/09/28 04:42:26;;;;;;;9.30;8.60;;;11.60;99.90;;;12.30;100.00;98139.00;10416842;28;20741;-80
2023/09/28 04:47:29;;;;;;;10.07;9.27;;;11.50;99.90;;;12.23;100.00;98162.53;10424622;28;20230;-79
2023/09/28 04:52:32;;;;;;;9.93;9.00;;;11.40;99.90;;;12.12;100.00;98164.50;10423555;28;20924;-76
2023/09/28 04:57:37;;;;;;;12.43;11.32;;;11.40;99.90;;;12.15;100.00;98162.97;10417265;28;20245;-77
2023/09/28 05:02:40;;;;;;;11.32;10.43;;;11.50;99.90;;;12.23;100.00;98152.28;10433877;28;20730;-77
2023/09/28 05:07:44;;;;;;;12.02;11.13;;;11.60;99.90;;;12.26;100.00;98167.81;10413733;28;20225;-77
2023/09/28 05:12:49;;;;;;;12.07;10.98;;;11.60;99.90;;;12.38;100.00;98158.25;10414498;28;20226;-76
2023/09/28 05:17:52;;;;;;;13.25;12.07;;;11.60;99.90;;;12.36;100.00;98154.69;10413367;28;20709;-77
2023/09/28 05:22:55;;;;;;;13.98;12.77;;;11.70;99.90;;;12.48;100.00;98165.66;10421404;28;20648;-78
2023/09/28 05:28:00;;;;;;;14.15;12.85;;;11.80;99.90;;;12.71;100.00;98179.72;10426409;28;20228;-78
2023/09/28 05:33:04;;;;;;;15.98;14.38;;;12.00;99.90;;;12.68;100.00;98168.41;10436819;28;20321;-77
2023/09/28 05:38:07;;;;;;;16.95;15.45;;;12.00;99.90;;;12.61;100.00;98157.78;10434054;28;20216;-78
2023/09/28 05:43:13;;;;;;;14.80;13.35;;;12.00;99.90;;;12.59;100.00;98156.84;10421838;28;20232;-77
2023/09/28 05:48:16;;;;;;;16.42;14.82;;;11.90;99.90;;;12.58;100.00;98162.75;10427563;28;20226;-77
2023/09/28 05:53:20;;;;;;;16.73;15.00;;;11.90;99.90;;;12.71;100.00;98181.41;10434233;28;20217;-77
2023/09/28 05:58:24;;;;;;;15.93;14.52;;;12.10;99.90;;;12.90;100.00;98189.25;10437051;28;20591;-77
2023/09/28 06:03:28;;;;;;;15.35;13.75;;;12.20;99.90;;;13.04;100.00;98221.66;10428039;28;20236;-79
2023/09/28 06:08:31;;;;;;;14.63;13.43;;;12.40;99.90;;;13.31;100.00;98231.66;10422287;28;20229;-76
2023/09/28 06:13:36;;;;;;;13.77;12.68;;;12.50;99.90;;;13.61;99.46;98228.91;10421004;28;20244;-76
2023/09/28 06:18:46;;;;;;;13.75;12.55;;;12.50;99.90;;;13.52;100.00;98227.63;10423640;28;20281;-77
2023/09/28 06:23:49;;;;;;;13.48;12.38;;;12.70;99.90;;;13.65;100.00;98243.66;10423572;28;20308;-77
2023/09/28 06:28:54;;;;;;;13.50;12.35;;;12.80;99.90;;;13.72;99.62;98238.03;10419823;28;20233;-78
2023/09/28 06:33:58;;;;;;;12.75;11.65;;;12.80;99.90;;;13.92;98.55;98249.31;10420624;28;20232;-78
2023/09/28 06:39:03;;;;;;;12.15;11.05;;;13.00;99.90;;;14.51;96.53;98227.34;10416227;28;20221;-75
2023/09/28 06:44:09;;;;;;;12.20;11.20;;;13.40;99.90;;;14.83;95.13;98234.91;10418647;28;20244;-76
2023/09/28 06:49:13;;;;;;;12.13;11.05;;;13.80;99.90;;;15.10;92.69;98231.81;10420422;28;20316;-78
2023/09/28 06:54:16;;;;;;;11.25;10.40;;;14.10;99.90;;;15.13;93.13;98221.66;10417296;28;20222;-78
2023/09/28 06:59:21;;;;;;;12.75;11.57;;;14.20;99.90;;;15.39;91.95;98222.81;10416962;28;20225;-77
2023/09/28 07:04:24;;;;;;;11.15;10.15;;;14.50;99.90;;;15.80;91.69;98217.75;10424067;28;20289;-77
2023/09/28 07:15:00;;;;;;;12.25;11.15;;;16.00;99.90;;;17.50;83.74;98217.50;10463264;28;20229;-81
2023/09/28 07:20:05;;;;;;;11.55;10.55;;;16.80;99.90;;;17.84;82.36;98223.91;10444422;28;20228;-80
2023/09/28 07:25:10;;;;;;;12.25;11.15;;;17.00;99.90;;;17.55;82.06;98241.81;10471487;28;20221;-82
2023/09/28 07:30:15;;;;;;;14.02;12.52;;;16.50;99.90;;;17.23;84.54;98250.13;10479773;28;20229;-80
2023/09/28 07:35:20;;;;;;;13.40;12.20;;;16.10;99.90;;;17.07;84.73;98252.13;10443702;28;20243;-81
2023/09/28 07:40:24;;;;;;;14.80;13.40;;;16.00;99.90;;;16.96;86.93;98245.66;10446418;28;20245;-79
2023/09/28 07:45:49;;;;;;;14.75;13.40;;;15.90;99.90;;;17.62;85.86;98231.69;10464615;28;20307;-81
2023/09/28 07:50:53;;;;;;;13.45;12.20;;;16.80;99.90;;;18.05;83.86;98231.50;10461624;28;21076;-78
2023/09/28 07:55:56;;;;;;;12.50;11.43;;;17.40;99.90;;;18.75;81.34;98230.34;10472698;28;20225;-81
2023/09/28 08:01:02;;;;;;;10.88;9.98;;;18.20;99.90;;;19.28;78.75;98238.81;10467138;28;20239;-79
2023/09/28 08:06:09;;;;;;;10.15;9.27;;;18.70;99.90;;;19.82;75.77;98249.84;10466002;28;20232;-82
2023/09/28 08:11:32;;;;;;;9.07;8.30;;;19.40;99.90;;;20.42;72.44;98247.06;10474913;28;20225;-81
2023/09/28 08:16:36;;;;;;;9.30;8.40;;;20.00;99.90;;;20.72;70.58;98256.44;10462552;28;20235;-82
2023/09/28 08:21:41;;;;;;;8.55;7.95;;;20.20;99.90;;;21.18;68.58;98252.31;10461763;28;20221;-82
2023/09/28 08:26:45;;;;;;;8.57;7.78;;;20.50;99.90;;;21.52;65.86;98249.56;10470682;28;20248;-82
2023/09/28 08:31:52;;;;;;;8.00;7.40;;;20.90;99.90;;;21.93;64.42;98238.19;10460286;28;20229;-84
2023/09/28 08:36:55;;;;;;;8.20;7.50;;;21.40;99.90;;;22.31;61.68;98236.28;10454963;28;20239;-81
2023/09/28 08:42:03;;;;;;;6.78;6.28;;;21.80;99.90;;;22.22;62.51;98229.19;10465704;28;20243;-84
2023/09/28 08:47:16;;;;;;;7.05;6.45;;;21.70;99.90;;;22.46;61.68;98233.94;10454618;28;20286;-84
2023/09/28 08:52:21;;;;;;;6.60;6.00;;;21.90;99.90;;;22.93;60.73;98236.38;10459601;28;20247;-84
2023/09/28 08:57:27;;;;;;;7.68;6.70;;;22.40;99.90;;;23.23;59.62;98239.41;10457066;28;20252;-84
2023/09/28 09:02:32;;;;;;;7.75;7.10;;;22.80;99.90;;;23.65;58.77;98246.00;10456318;28;20245;-84
2023/09/28 09:07:39;;;;;;;7.20;6.60;;;23.10;99.90;;;23.80;58.09;98233.16;10461919;28;20233;-84
2023/09/28 09:12:44;;;;;;;6.38;5.88;;;23.30;99.90;;;23.89;57.94;98232.38;10455002;28;20229;-83
2023/09/28 09:17:48;;;;;;;6.43;5.70;;;23.40;99.90;;;24.18;56.07;98228.31;10453344;28;20228;-84
2023/09/28 09:22:53;;;;;;;6.20;5.70;;;23.60;99.90;;;24.24;54.47;98214.44;10455667;28;20240;-84
2023/09/28 09:28:04;;;;;;;5.85;5.35;;;23.80;99.90;;;24.52;53.52;98210.31;10455329;28;20668;-82
2023/09/28 09:33:09;;;;;;;4.95;4.45;;;24.10;99.00;;;24.51;51.52;98213.78;10464500;28;20236;-83
2023/09/28 09:38:13;;;;;;;5.38;4.88;;;24.00;97.40;;;24.81;50.22;98214.84;10465938;28;20260;-83
2023/09/28 09:43:19;;;;;;;5.45;4.80;;;24.20;96.60;;;25.11;49.87;98211.53;10482846;28;20225;-83
2023/09/28 09:48:25;;;;;;;5.13;4.70;;;24.70;96.00;;;25.22;49.81;98209.00;10444734;28;20220;-83
2023/09/28 09:53:42;;;;;;;4.88;4.47;;;24.80;95.80;;;25.43;49.31;98209.09;10456525;28;20229;-82
2023/09/28 09:58:48;;;;;;;4.72;4.32;;;24.90;95.80;;;25.68;46.25;98204.81;10440902;28;20311;-82
2023/09/28 10:03:55;;;;;;;4.75;4.18;;;25.20;93.10;;;25.85;44.40;98207.50;10437785;28;20224;-83
2023/09/28 10:09:10;;;;;;;4.45;3.83;;;25.40;91.90;;;26.03;42.70;98206.63;10463778;28;20224;-84
2023/09/28 10:14:15;;;;;;;4.13;3.42;;;25.50;90.60;;;26.28;40.02;98211.03;10450431;28;20232;-80
2023/09/28 10:19:24;;;;;;;4.88;4.35;;;25.90;86.40;;;26.41;41.11;98217.16;10425482;28;20221;-80
2023/09/28 10:24:31;;;;;;;4.00;3.53;;;25.80;87.90;;;26.44;41.27;98222.38;10444400;28;20227;-82
2023/09/28 10:29:34;;;;;;;4.13;3.80;;;25.90;87.60;;;26.55;40.16;98206.66;10446553;28;20287;-80
2023/09/28 10:34:43;;;;;;;4.25;3.20;;;26.00;86.10;;;26.66;40.88;98209.28;10447434;28;20252;-79
2023/09/28 10:39:51;;;;;;;3.80;3.40;;;26.10;86.30;;;26.73;39.85;98195.28;10450415;28;20704;-80
2023/09/28 10:44:57;;;;;;;3.92;3.53;;;26.10;84.80;;;26.85;39.30;98197.88;10451705;28;20220;-82
2023/09/28 10:50:03;;;;;;;3.83;3.53;;;26.30;84.30;;;26.95;39.04;98189.09;10483828;28;20240;-80
2023/09/28 10:55:09;;;;;;;3.55;3.25;;;26.40;83.90;;;26.77;37.71;98191.78;10458555;28;20236;-78
2023/09/28 11:00:13;;;;;;;3.30;3.00;;;26.20;80.90;;;26.67;37.55;98195.28;10439824;28;20229;-79
2023/09/28 11:05:19;;;;;;;3.30;2.90;;;26.20;80.30;;;26.74;36.09;98191.78;10456370;28;20316;-82
2023/09/28 11:10:24;;;;;;;3.03;2.65;;;26.20;77.40;;;26.94;36.39;98184.72;10439423;28;20260;-82
2023/09/28 11:15:29;;;;;;;2.97;2.78;;;26.40;78.30;;;26.99;36.40;98183.84;10447455;28;20224;-82
2023/09/28 11:20:34;;;;;;;3.13;2.85;;;26.30;78.10;;;26.90;37.07;98166.41;10448692;28;20260;-80
2023/09/28 11:25:39;;;;;;;3.50;3.00;;;26.30;78.50;;;27.16;36.82;98158.44;10443589;28;20229;-81
2023/09/28 11:31:07;;;;;;;3.17;2.88;;;26.40;79.20;;;27.17;36.29;98166.31;10447656;28;20229;-80
2023/09/28 11:36:17;;;;;;;3.25;3.00;;;26.50;78.60;;;27.17;36.13;98165.44;10452501;28;20705;-80
2023/09/28 11:41:22;;;;;;;3.67;3.10;;;26.50;78.10;;;27.26;34.22;98149.63;10449781;28;20235;-80
2023/09/28 11:46:28;;;;;;;3.05;2.72;;;26.60;74.20;;;26.85;36.00;98153.28;10451559;28;20673;-81
2023/09/28 11:51:34;;;;;;;3.30;2.90;;;26.20;77.00;;;27.09;36.09;98151.44;10443252;28;20238;-79
2023/09/28 11:56:37;;;;;;;3.60;3.28;;;26.30;77.50;;;27.04;36.70;98150.56;10440605;28;20217;-80
2023/09/28 12:01:41;;;;;;;2.90;2.65;;;26.20;78.20;;;27.16;34.52;98150.56;10432469;28;20259;-80
2023/09/28 12:06:46;;;;;;;3.58;2.45;;;26.30;75.20;;;26.90;34.87;98151.53;10433273;28;20751;-80
2023/09/28 12:11:50;;;;;;;2.60;2.40;;;26.20;75.40;;;27.02;34.98;98157.59;10438496;28;20232;-79
2023/09/28 12:16:54;;;;;;;3.08;2.58;;;26.20;75.20;;;27.21;34.19;98143.53;10435346;28;20654;-79
2023/09/28 12:22:03;;;;;;;2.85;2.55;;;26.40;73.50;;;27.42;35.31;98137.31;10441047;28;20227;-80
2023/09/28 12:27:06;;;;;;;3.13;2.83;;;26.60;75.30;;;27.20;34.93;98141.78;10441776;28;20264;-79
2023/09/28 12:32:10;;;;;;;2.92;2.50;;;26.50;75.40;;;27.07;36.52;98138.34;10441088;28;20285;-81
2023/09/28 12:37:14;;;;;;;2.50;2.30;;;26.30;78.60;;;27.05;36.32;98123.47;10445110;28;20279;-80
2023/09/28 12:42:18;;;;;;;2.88;2.67;;;26.30;76.80;;;26.89;36.23;98117.41;10438909;28;20223;-78
2023/09/28 12:47:21;;;;;;;2.65;2.47;;;26.20;76.50;;;27.14;34.92;98094.56;10436070;28;20780;-78
2023/09/28 12:52:26;;;;;;;4.15;2.30;;;26.30;74.50;;;27.09;33.49;98088.44;10435909;28;20327;-79
2023/09/28 12:57:30;;;;;;;1.90;1.80;;;26.30;72.30;;;27.44;31.15;98087.41;10430028;28;20680;-78
2023/09/28 13:02:34;;;;;;;1.90;1.80;;;26.60;68.50;;;27.59;30.15;98079.44;10438147;28;20312;-78
2023/09/28 13:07:39;;;;;;;2.08;1.70;;;26.80;66.90;;;27.28;31.37;98074.38;10441818;28;20663;-79
2023/09/28 13:12:43;;;;;;;1.83;1.73;;;26.60;67.00;;;27.13;32.21;98080.56;10434484;28;20336;-79
2023/09/28 13:17:46;;;;;;;1.73;1.58;;;26.40;69.00;;;27.16;30.69;98079.72;10439714;28;20220;-80
2023/09/28 13:22:53;;;;;;;1.85;1.55;;;26.30;67.00;;;27.06;31.34;98070.09;10439029;28;20283;-79
2023/09/28 13:27:57;;;;;;;1.58;1.48;;;26.30;67.40;;;27.11;30.03;98070.94;10442618;28;20547;-78
2023/09/28 13:33:00;;;;;;;1.55;1.40;;;26.30;65.00;;;27.26;30.09;98057.75;10443029;28;20303;-79
2023/09/28 13:38:08;;;;;;;1.80;1.70;;;26.50;65.60;;;27.69;29.68;98059.19;10434508;28;20224;-80
2023/09/28 13:43:12;;;;;;;2.25;1.80;;;26.80;65.10;;;27.62;29.62;98047.88;10437253;28;20228;-79
2023/09/28 13:48:15;;;;;;;2.00;1.48;;;26.80;63.50;;;27.63;29.81;98045.22;10443889;28;20221;-79
2023/09/28 13:53:20;;;;;;;1.50;1.40;;;26.90;64.40;;;27.85;29.50;98051.22;10431830;28;20224;-79
2023/09/28 13:58:23;;;;;;;1.70;1.60;;;27.00;64.50;;;27.65;30.13;98031.22;10439238;28;20224;-79
2023/09/28 14:03:27;;;;;;;1.95;1.65;;;26.90;64.50;;;27.82;30.57;98026.72;10454496;28;20231;-78
2023/09/28 14:08:32;;;;;;;1.60;1.50;;;26.90;66.00;;;27.81;30.35;98033.75;10449871;28;20228;-79
2023/09/28 14:13:36;;;;;;;4.82;1.92;;;26.90;65.50;;;27.74;31.07;98029.38;10449448;28;20225;-79
2023/09/28 14:18:41;;;;;;;1.70;1.60;;;26.80;66.70;;;27.64;30.64;98030.34;10440849;28;20792;-80
2023/09/28 14:23:46;;;;;;;2.00;1.80;;;26.80;66.40;;;27.95;29.78;98032.72;10440677;28;20258;-78
2023/09/28 14:28:50;;;;;;;1.70;1.60;;;27.00;64.20;;;27.55;30.51;98035.66;10479279;28;20606;-79
2023/09/28 14:33:53;;;;;;;1.75;1.60;;;26.70;64.90;;;27.36;30.86;98029.69;10480235;28;20251;-78
2023/09/28 14:38:59;;;;;;;1.85;1.60;;;26.50;66.30;;;27.36;31.00;98030.56;10445717;28;20630;-79
2023/09/28 14:44:02;;;;;;;1.70;1.60;;;26.50;66.40;;;27.45;30.85;98028.75;10444526;28;20650;-80
2023/09/28 14:49:16;;;;;;;2.15;1.80;;;26.50;65.60;;;27.39;30.51;98029.69;10438787;28;20239;-78
2023/09/28 14:54:30;;;;;;;3.25;2.45;;;26.40;65.80;;;27.29;31.05;98025.38;10455000;28;20238;-79
2023/09/28 14:59:48;;;;;;;1.83;1.73;;;26.40;66.70;;;27.22;33.05;98021.06;10436955;28;20263;-79
2023/09/28 15:04:55;;;;;;;2.13;1.88;;;26.20;70.40;;;27.27;33.16;98014.00;10450409;28;20307;-78
2023/09/28 15:10:04;;;;;;;3.42;2.00;;;26.20;69.90;;;27.13;33.52;98021.94;10444363;28;20679;-80
2023/09/28 15:15:08;;;;;;;1.85;1.75;;;26.10;70.40;;;27.09;33.90;98018.44;10440861;28;20279;-79
2023/09/28 15:20:13;;;;;;;2.17;1.98;;;26.00;72.70;;;26.83;38.08;98015.13;10443721;28;20240;-79
2023/09/28 15:25:18;;;;;;;2.20;2.00;;;25.80;80.50;;;26.61;41.35;98012.63;10437295;28;20233;-79
2023/09/28 15:30:21;;;;;;;2.72;2.45;;;25.50;85.10;;;26.38;43.31;98011.78;10442271;28;20254;-81
2023/09/28 15:35:24;;;;;;;2.35;2.15;;;25.40;88.40;;;26.23;44.46;98016.19;10428821;28;20255;-80
2023/09/28 15:40:36;;;;;;;3.25;2.28;;;25.20;89.20;;;26.19;45.09;98018.84;10444375;28;20240;-77
2023/09/28 15:45:40;;;;;;;2.28;1.95;;;25.10;90.70;;;26.40;44.40;98021.38;10451717;28;20266;-78
2023/09/28 15:50:43;;;;;;;2.85;2.40;;;25.30;89.50;;;26.34;44.00;98026.66;10445709;28;20244;-78
2023/09/28 15:55:48;;;;;;;2.75;2.50;;;25.30;88.90;;;25.99;46.11;98021.50;10441501;28;20278;-78
2023/09/28 16:00:51;;;;;;;2.88;2.58;;;25.00;90.90;;;25.76;47.02;98034.59;10436298;28;20256;-78
2023/09/28 16:05:54;;;;;;;3.38;2.45;;;24.70;91.80;;;25.59;47.91;98035.47;10437794;28;20229;-77
2023/09/28 16:10:59;;;;;;;2.95;2.55;;;24.50;92.40;;;25.47;48.61;98034.56;10435927;28;20231;-78
2023/09/28 16:16:03;;;;;;;4.38;3.63;;;24.40;93.20;;;25.16;50.66;98038.03;10440669;28;20236;-79
2023/09/28 16:21:09;;;;;;;3.38;3.00;;;24.10;94.50;;;25.03;49.92;98040.59;10438090;28;20221;-80
2023/09/28 16:26:13;;;;;;;3.67;3.38;;;23.90;94.30;;;24.97;51.03;98035.34;10444564;28;20224;-79
2023/09/28 16:31:17;;;;;;;5.13;4.63;;;23.90;95.10;;;24.59;53.41;98031.72;10438587;28;20231;-78
2023/09/28 16:36:20;;;;;;;3.92;3.53;;;23.50;96.90;;;24.30;55.37;98042.03;10440088;28;20224;-78
2023/09/28 16:41:25;;;;;;;3.63;2.97;;;23.20;98.50;;;24.01;56.62;98045.34;10437854;28;20225;-79
2023/09/28 16:46:28;;;;;;;3.10;2.80;;;22.90;99.50;;;23.67;58.57;98049.41;10422273;28;20225;-78
2023/09/28 16:51:32;;;;;;;4.20;2.50;;;22.60;99.90;;;23.37;60.31;98044.78;10428675;28;20225;-78
2023/09/28 16:56:38;;;;;;;2.97;2.65;;;22.30;99.90;;;23.15;61.54;98046.31;10439887;28;20229;-79
2023/09/28 17:01:42;;;;;;;3.15;2.60;;;22.10;99.90;;;22.99;61.07;98047.88;10419946;28;20338;-77
2023/09/28 17:06:45;;;;;;;2.53;2.30;;;21.90;99.90;;;22.59;63.28;98049.13;10422167;28;20794;-78
2023/09/28 17:11:50;;;;;;;2.95;2.50;;;21.50;99.90;;;22.32;64.45;98053.13;10414812;28;20282;-78
2023/09/28 17:16:53;;;;;;;2.80;2.33;;;21.20;99.90;;;21.96;65.07;98049.09;10418915;28;20217;-78
2023/09/28 17:21:56;;;;;;;2.92;2.53;;;20.90;99.90;;;21.79;65.74;98055.78;10426365;28;20238;-79
2023/09/28 17:27:01;;;;;;;2.40;2.20;;;20.70;99.90;;;21.46;66.80;98056.06;10418417;28;20233;-80
2023/09/28 17:32:04;;;;;;;2.63;2.42;;;20.30;99.90;;;21.23;67.09;98073.84;10419305;28;20622;-78
2023/09/28 17:37:09;;;;;;;2.67;2.45;;;20.10;99.90;;;21.00;67.26;98076.88;10419339;28;20223;-80
2023/09/28 17:42:13;;;;;;;2.40;2.20;;;19.90;99.90;;;20.77;67.16;98078.16;10428994;28;20232;-79
2023/09/28 17:47:16;;;;;;;2.97;2.53;;;19.60;99.90;;;20.56;67.49;98089.00;10419925;28;20233;-80
2023/09/28 17:52:19;;;;;;;3.08;2.72;;;19.50;99.90;;;20.41;68.20;98092.09;10414786;28;20641;-82
2023/09/28 17:57:24;;;;;;;2.60;2.40;;;19.30;99.90;;;20.20;68.13;98100.25;10414795;28;20303;-79
2023/09/28 18:02:27;;;;;;;3.47;2.72;;;19.10;99.90;;;19.97;68.53;98103.22;10417412;28;20229;-79
2023/09/28 18:07:31;;;;;;;3.38;2.90;;;18.90;99.90;;;19.93;68.00;98106.56;10414386;28;20304;-80
2023/09/28 18:12:35;;;;;;;3.20;2.90;;;18.80;99.90;;;19.77;68.87;98114.81;10410934;28;20226;-78
2023/09/28 18:17:39;;;;;;;3.22;2.67;;;18.70;99.90;;;19.68;67.42;98109.41;10417666;28;20230;-78
2023/09/28 18:22:42;;;;;;;3.47;2.80;;;18.70;99.90;;;19.61;67.47;98118.72;10411363;28;20344;-79
2023/09/28 18:27:49;;;;;;;3.10;2.88;;;18.70;99.90;;;19.59;68.54;98121.25;10424760;28;20220;-79
2023/09/28 18:32:54;;;;;;;2.88;2.50;;;18.60;99.90;;;19.54;69.88;98127.16;10426713;28;20225;-80
2023/09/28 18:37:58;;;;;;;3.22;2.92;;;18.60;99.90;;;19.53;70.39;98125.41;10430841;28;20229;-79
2023/09/28 18:43:03;;;;;;;3.00;2.80;;;18.60;99.90;;;19.44;70.65;98130.38;10423997;28;20252;-78
2023/09/28 18:48:08;;;;;;;3.45;3.15;;;18.50;99.90;;;19.30;71.60;98138.66;10429547;28;20229;-79
2023/09/28 18:53:16;;;;;;;2.97;2.78;;;18.40;99.90;;;19.20;71.57;98147.03;10435602;28;20321;-79
2023/09/28 18:58:21;;;;;;;3.35;3.05;;;18.30;99.90;;;19.19;71.36;98142.66;10422009;28;20274;-78
2023/09/28 19:03:24;;;;;;;4.05;3.60;;;18.30;99.90;;;19.02;72.50;98149.97;10419980;28;20247;-78
2023/09/28 19:08:28;;;;;;;3.75;3.45;;;18.10;99.90;;;19.00;73.16;98148.16;10419523;28;20299;-77
2023/09/28 19:13:32;;;;;;;4.68;3.60;;;18.00;99.90;;;18.93;73.58;98156.59;10430068;28;20320;-79
2023/09/28 19:18:36;;;;;;;4.07;2.95;;;17.90;99.90;;;18.79;74.04;98159.66;10428569;28;20228;-79
2023/09/28 19:23:39;;;;;;;3.88;3.50;;;17.80;99.90;;;18.70;75.05;98164.53;10431899;28;20225;-80
2023/09/28 19:28:44;;;;;;;4.00;3.60;;;17.70;99.90;;;18.61;75.99;98167.72;10432743;28;20221;-79
2023/09/28 19:33:50;;;;;;;4.13;3.28;;;17.60;99.90;;;18.50;77.26;98165.66;10436634;28;20228;-85
2023/09/28 19:38:54;;;;;;;3.78;2.95;;;17.50;99.90;;;18.30;77.96;98168.50;10439853;28;20244;-79
2023/09/28 19:43:59;;;;;;;4.72;3.40;;;17.30;99.90;;;18.20;78.47;98166.47;10450627;28;20720;-79
2023/09/28 19:49:03;;;;;;;4.10;3.40;;;17.20;99.90;;;18.10;79.08;98161.81;10454681;28;20259;-79
2023/09/28 19:54:08;;;;;;;4.72;3.53;;;17.00;99.90;;;17.93;80.51;98171.59;10438986;28;20226;-81
2023/09/28 19:59:13;;;;;;;3.58;3.28;;;16.90;99.90;;;17.78;80.29;98171.97;10439037;28;20225;-80
2023/09/28 20:04:16;;;;;;;5.32;4.00;;;16.80;99.90;;;17.72;80.36;98166.56;10438596;28;20220;-79
2023/09/28 20:09:20;;;;;;;4.07;3.67;;;16.70;99.90;;;17.73;79.83;98170.91;10449654;28;20236;-80
2023/09/28 20:14:25;;;;;;;4.82;3.60;;;16.70;99.90;;;17.74;80.36;98180.41;10445106;28;20224;-79
2023/09/28 20:19:29;;;;;;;6.35;3.70;;;16.70;99.90;;;17.61;81.69;98180.81;10443042;28;20262;-80
2023/09/28 20:24:33;;;;;;;5.72;4.07;;;16.60;99.90;;;17.51;82.53;98182.19;10438656;28;20221;-79
2023/09/28 20:29:40;;;;;;;5.13;3.80;;;16.50;99.90;;;17.41;82.81;98175.84;10433883;28;20249;-80
2023/09/28 20:34:43;;;;;;;4.38;3.47;;;16.40;99.90;;;17.28;83.21;98173.63;10433552;28;20231;-80
2023/09/28 20:39:46;;;;;;;4.40;4.00;;;16.30;99.90;;;17.18;83.17;98172.44;10440728;28;20223;-81
2023/09/28 20:44:51;;;;;;;4.63;3.90;;;16.20;99.90;;;17.02;84.27;98171.00;10439619;28;20225;-79
2023/09/28 20:49:54;;;;;;;4.93;3.95;;;16.10;99.90;;;16.90;84.75;98165.38;10446229;28;20229;-80
2023/09/28 20:54:58;;;;;;;4.80;4.30;;;15.90;99.90;;;16.80;84.68;98168.47;10434487;28;20217;-80
2023/09/28 21:00:05;;;;;;;4.72;4.32;;;15.80;99.90;;;16.83;84.72;98171.16;10432163;28;20236;-80
2023/09/28 21:05:09;;;;;;;4.47;4.05;;;15.90;99.90;;;16.82;84.87;98182.28;10430231;28;20213;-79